Time;durP1;ratioP1;P1;durP2;ratioP2;P2;SDS_P1;SDS_P2;PMS_P1;PMS_P2;Temp;Humidity;BMP_temperature;BMP_pressure;BME280_temperature;BME280_humidity;BME280_pressure;Samples;Min_cycle;Max_cycle;Signal;HPM_P1;HPM_P2
2023/08/03 00:01:54;;;;;;;1.65;0.60;;;21.20;76.60;;;;;;5051287;28;20396;-63
2023/08/03 00:04:20;;;;;;;2.28;0.88;;;21.20;76.60;;;;;;5051778;28;20477;-64
2023/08/03 00:06:45;;;;;;;3.25;0.80;;;21.20;76.60;;;;;;5052099;28;20377;-64
2023/08/03 00:09:11;;;;;;;3.88;1.02;;;21.20;76.50;;;;;;5051570;28;20408;-63
2023/08/03 00:11:36;;;;;;;5.25;1.08;;;21.20;76.60;;;;;;5052452;28;20079;-64
2023/08/03 00:14:02;;;;;;;3.33;0.85;;;21.20;76.50;;;;;;5051307;28;20067;-64
2023/08/03 00:16:28;;;;;;;3.55;0.95;;;21.20;76.60;;;;;;5051313;28;20095;-64
2023/08/03 00:18:53;;;;;;;1.98;0.85;;;21.20;76.50;;;;;;5051637;28;20064;-64
2023/08/03 00:21:19;;;;;;;3.00;1.00;;;21.20;76.50;;;;;;5052772;28;20529;-64
2023/08/03 00:23:44;;;;;;;4.35;0.98;;;21.20;76.50;;;;;;5051365;28;20127;-64
2023/08/03 00:26:10;;;;;;;3.50;1.05;;;21.20;76.50;;;;;;5052568;28;20044;-64
2023/08/03 00:28:35;;;;;;;2.58;0.80;;;21.20;76.40;;;;;;5051035;28;20049;-64
2023/08/03 00:31:01;;;;;;;2.00;0.77;;;21.20;76.40;;;;;;5053088;28;20049;-63
2023/08/03 00:33:27;;;;;;;3.55;0.90;;;21.20;76.40;;;;;;5056651;28;20048;-63
2023/08/03 00:35:52;;;;;;;2.85;0.90;;;21.20;76.40;;;;;;5055324;28;20488;-63
2023/08/03 00:38:18;;;;;;;3.70;0.95;;;21.20;76.40;;;;;;5056299;28;20056;-64
2023/08/03 00:40:43;;;;;;;2.40;0.90;;;21.20;76.40;;;;;;5056161;28;20396;-63
2023/08/03 00:43:09;;;;;;;1.50;0.80;;;21.20;76.40;;;;;;5055618;28;20080;-63
2023/08/03 00:45:35;;;;;;;2.85;1.13;;;21.20;76.40;;;;;;5055748;28;20036;-63
2023/08/03 00:48:00;;;;;;;2.47;0.80;;;21.20;76.40;;;;;;5055068;28;20055;-63
2023/08/03 00:50:26;;;;;;;2.95;0.70;;;21.20;76.40;;;;;;5055344;28;20041;-63
2023/08/03 00:52:52;;;;;;;3.05;1.00;;;21.10;76.90;;;;;;5055236;28;20037;-63
2023/08/03 00:55:17;;;;;;;1.60;0.60;;;21.20;76.40;;;;;;5054721;28;20045;-63
2023/08/03 00:57:43;;;;;;;2.97;0.77;;;21.20;76.30;;;;;;5053545;28;20049;-63
2023/08/03 01:00:09;;;;;;;2.40;0.70;;;21.20;76.40;;;;;;5056016;28;20049;-63
2023/08/03 01:02:34;;;;;;;3.30;0.85;;;21.10;76.30;;;;;;5054595;28;20130;-62
2023/08/03 01:05:00;;;;;;;2.63;0.50;;;21.20;76.30;;;;;;5055225;28;20075;-63
2023/08/03 01:07:26;;;;;;;2.97;0.70;;;21.10;76.20;;;;;;5055656;28;20120;-62
2023/08/03 01:09:51;;;;;;;1.92;0.70;;;21.20;76.30;;;;;;5054507;28;20124;-63
2023/08/03 01:12:17;;;;;;;3.42;0.60;;;21.10;76.20;;;;;;5054454;28;20036;-63
2023/08/03 01:14:43;;;;;;;2.65;0.80;;;21.10;76.20;;;;;;5071005;28;20073;-63
2023/08/03 01:17:09;;;;;;;3.10;0.70;;;21.10;76.20;;;;;;5054213;28;20049;-62
2023/08/03 01:19:35;;;;;;;3.88;1.20;;;21.10;76.20;;;;;;5054508;28;20048;-62
2023/08/03 01:22:00;;;;;;;2.15;0.60;;;21.10;76.20;;;;;;5054355;28;20476;-62
2023/08/03 01:24:26;;;;;;;2.50;0.65;;;21.10;76.20;;;;;;5055653;28;20033;-62
2023/08/03 01:26:53;;;;;;;1.67;0.70;;;21.10;76.20;;;;;;5052822;28;20056;-62
2023/08/03 01:29:18;;;;;;;2.92;0.80;;;21.10;76.20;;;;;;5054211;28;20608;-62
2023/08/03 01:31:44;;;;;;;2.92;0.90;;;21.10;76.10;;;;;;5054888;28;20131;-62
2023/08/03 01:34:13;;;;;;;3.17;0.70;;;21.10;76.10;;;;;;5054414;28;20053;-62
2023/08/03 01:36:38;;;;;;;2.55;1.13;;;21.10;76.10;;;;;;5080809;28;20501;-62
2023/08/03 01:39:08;;;;;;;2.05;0.60;;;21.10;76.10;;;;;;5055986;28;20544;-62
2023/08/03 01:41:38;;;;;;;3.08;0.50;;;21.10;76.10;;;;;;5054249;28;20131;-63
2023/08/03 01:44:30;;;;;;;1.63;0.82;;;21.10;76.10;;;;;;5055120;28;20497;-63
2023/08/03 01:46:57;;;;;;;2.85;0.70;;;21.10;76.00;;;;;;5054017;28;20131;-63
2023/08/03 01:49:26;;;;;;;1.63;0.60;;;21.10;76.10;;;;;;5053896;28;20048;-63
2023/08/03 01:51:51;;;;;;;3.40;0.80;;;21.10;76.10;;;;;;5054687;28;20044;-63
2023/08/03 01:54:17;;;;;;;2.67;0.52;;;21.10;76.00;;;;;;5053930;28;20395;-63
2023/08/03 01:56:42;;;;;;;1.02;0.40;;;21.10;76.00;;;;;;5054044;28;20147;-63
2023/08/03 01:59:08;;;;;;;1.15;0.50;;;21.00;75.90;;;;;;5054479;28;20073;-63
2023/08/03 02:01:34;;;;;;;2.17;0.60;;;21.10;75.90;;;;;;5064611;28;20051;-63
2023/08/03 02:03:59;;;;;;;1.27;0.50;;;21.10;75.90;;;;;;5074768;28;20089;-63
2023/08/03 02:06:25;;;;;;;2.33;0.52;;;21.10;75.90;;;;;;5074327;28;20044;-63
2023/08/03 02:08:50;;;;;;;1.30;0.50;;;21.10;75.90;;;;;;5072218;28;20041;-63
2023/08/03 02:11:16;;;;;;;2.35;0.70;;;21.00;75.90;;;;;;5073346;28;20097;-63
2023/08/03 02:13:42;;;;;;;4.63;0.70;;;21.10;75.90;;;;;;5074442;28;20036;-62
2023/08/03 02:16:10;;;;;;;3.15;0.63;;;21.10;75.90;;;;;;5073728;28;20048;-63
2023/08/03 02:18:36;;;;;;;2.00;0.50;;;21.10;75.90;;;;;;5074423;28;20046;-63
2023/08/03 02:21:02;;;;;;;1.40;0.40;;;21.00;75.80;;;;;;5074468;28;20048;-63
2023/08/03 02:23:27;;;;;;;2.47;0.50;;;21.00;75.80;;;;;;5073639;28;20498;-63
2023/08/03 02:25:53;;;;;;;1.60;0.50;;;21.00;75.80;;;;;;5073943;28;20051;-63
2023/08/03 02:28:18;;;;;;;1.83;0.63;;;21.00;75.80;;;;;;5074556;28;20068;-63
2023/08/03 02:30:44;;;;;;;1.38;0.60;;;21.00;75.80;;;;;;5073135;28;20131;-63
2023/08/03 02:33:09;;;;;;;2.17;0.50;;;21.00;75.70;;;;;;5074093;28;20040;-62
2023/08/03 02:35:39;;;;;;;2.58;0.70;;;21.00;75.80;;;;;;5071278;28;20044;-63
2023/08/03 02:38:07;;;;;;;2.05;0.60;;;21.00;75.70;;;;;;5072846;28;20042;-63
2023/08/03 02:40:33;;;;;;;1.92;0.50;;;21.00;75.70;;;;;;5073744;28;20041;-63
2023/08/03 02:42:58;;;;;;;2.85;0.55;;;21.00;75.70;;;;;;5073360;28;20055;-62
2023/08/03 02:45:24;;;;;;;2.20;0.60;;;21.00;75.70;;;;;;5074125;28;20613;-63
2023/08/03 02:47:50;;;;;;;3.28;0.60;;;21.00;75.70;;;;;;5073629;28;20076;-63
2023/08/03 02:50:15;;;;;;;3.53;0.68;;;21.00;75.80;;;;;;5073027;28;20055;-63
2023/08/03 02:52:41;;;;;;;1.15;0.50;;;21.00;75.70;;;;;;5073179;28;20045;-63
2023/08/03 02:55:07;;;;;;;1.73;0.50;;;21.00;75.70;;;;;;5073523;28;20045;-63
2023/08/03 02:57:32;;;;;;;3.05;0.60;;;21.00;75.70;;;;;;5073145;28;20041;-62
2023/08/03 02:59:58;;;;;;;0.80;0.40;;;21.00;75.70;;;;;;5072787;28;20033;-63
2023/08/03 03:02:23;;;;;;;1.33;0.50;;;21.00;75.70;;;;;;5073481;28;20044;-63
2023/08/03 03:04:52;;;;;;;1.33;0.45;;;21.00;75.70;;;;;;5072642;28;20041;-63
2023/08/03 03:07:17;;;;;;;0.85;0.40;;;21.00;75.70;;;;;;5073620;28;20047;-63
2023/08/03 03:09:43;;;;;;;0.90;0.40;;;21.00;75.70;;;;;;5073230;28;20037;-63
2023/08/03 03:12:09;;;;;;;1.10;0.40;;;21.00;75.70;;;;;;5072737;28;20056;-62
2023/08/03 03:14:35;;;;;;;1.83;0.40;;;21.00;75.70;;;;;;5072794;28;20079;-63
2023/08/03 03:17:01;;;;;;;2.05;0.52;;;21.00;75.70;;;;;;5073468;28;20507;-63
2023/08/03 03:19:27;;;;;;;2.08;0.55;;;21.00;75.70;;;;;;5071034;28;20044;-63
2023/08/03 03:21:52;;;;;;;1.55;0.45;;;20.90;75.60;;;;;;5073241;28;20120;-63
2023/08/03 03:24:18;;;;;;;1.00;0.50;;;20.90;75.60;;;;;;5073138;28;20111;-63
2023/08/03 03:26:44;;;;;;;1.70;0.70;;;20.90;75.60;;;;;;5072410;28;20045;-63
2023/08/03 03:29:09;;;;;;;1.30;0.43;;;20.90;75.60;;;;;;5073194;28;20041;-63
2023/08/03 03:31:35;;;;;;;1.75;0.47;;;20.90;75.60;;;;;;5071780;28;20084;-63
2023/08/03 03:34:00;;;;;;;1.52;0.60;;;20.90;75.60;;;;;;5072509;28;20460;-63
2023/08/03 03:36:26;;;;;;;2.28;0.50;;;21.00;75.70;;;;;;5072584;28;20040;-63
2023/08/03 03:38:51;;;;;;;1.45;0.40;;;20.90;75.60;;;;;;5072016;28;20090;-63
2023/08/03 03:41:17;;;;;;;2.03;0.50;;;20.90;75.60;;;;;;5072897;28;20036;-62
2023/08/03 03:43:42;;;;;;;1.67;0.47;;;20.90;75.60;;;;;;5072474;28;20040;-63
2023/08/03 03:46:08;;;;;;;1.23;0.30;;;20.90;75.50;;;;;;5071961;28;20135;-62
2023/08/03 03:48:33;;;;;;;1.90;0.60;;;20.90;75.60;;;;;;5072637;28;20036;-64
2023/08/03 03:50:59;;;;;;;1.83;0.32;;;20.90;75.60;;;;;;5072716;28;20055;-62
2023/08/03 03:53:25;;;;;;;1.35;0.50;;;20.90;75.60;;;;;;5071658;28;20097;-63
2023/08/03 03:55:50;;;;;;;0.77;0.30;;;20.90;75.60;;;;;;5070784;28;20075;-63
2023/08/03 03:58:16;;;;;;;1.55;0.40;;;20.90;75.50;;;;;;5073014;28;20041;-63
2023/08/03 04:00:41;;;;;;;1.80;0.50;;;20.90;75.50;;;;;;5069245;28;20032;-63
2023/08/03 04:03:07;;;;;;;1.42;0.60;;;20.90;75.50;;;;;;5062145;28;20098;-63
2023/08/03 04:05:34;;;;;;;0.90;0.50;;;20.90;75.60;;;;;;5071478;28;20068;-63
2023/08/03 04:08:01;;;;;;;1.50;0.50;;;20.90;75.50;;;;;;5071111;28;20043;-63
2023/08/03 04:10:26;;;;;;;1.83;0.50;;;20.90;75.50;;;;;;5072558;28;20055;-63
2023/08/03 04:12:52;;;;;;;1.73;0.50;;;20.90;75.50;;;;;;5072327;28;20041;-63
2023/08/03 04:15:17;;;;;;;0.88;0.40;;;20.90;75.50;;;;;;5069636;28;20055;-63
2023/08/03 04:17:45;;;;;;;1.38;0.40;;;20.90;75.50;;;;;;5070766;28;20037;-63
2023/08/03 04:20:17;;;;;;;1.30;0.40;;;20.90;75.50;;;;;;5070807;28;20127;-64
2023/08/03 04:22:43;;;;;;;1.20;0.40;;;20.90;75.60;;;;;;5071350;28;20063;-63
2023/08/03 04:25:08;;;;;;;1.95;0.50;;;20.90;75.50;;;;;;5072260;28;20551;-63
2023/08/03 04:27:34;;;;;;;1.50;0.50;;;20.90;75.50;;;;;;5071890;28;20133;-63
2023/08/03 04:29:59;;;;;;;1.40;0.50;;;20.90;75.50;;;;;;5070902;28;20044;-63
2023/08/03 04:32:26;;;;;;;2.97;0.65;;;20.90;75.50;;;;;;5071099;28;20067;-63
2023/08/03 04:34:51;;;;;;;1.98;0.40;;;20.90;75.50;;;;;;5070863;28;20079;-63
2023/08/03 04:37:17;;;;;;;0.95;0.50;;;20.90;75.50;;;;;;5071637;28;20476;-63
2023/08/03 04:39:43;;;;;;;1.15;0.52;;;20.90;75.50;;;;;;5070653;28;20094;-63
2023/08/03 04:42:08;;;;;;;1.15;0.40;;;20.80;75.40;;;;;;5070118;28;20043;-63
2023/08/03 04:44:34;;;;;;;1.10;0.40;;;20.80;75.40;;;;;;5071924;28;20041;-63
2023/08/03 04:46:59;;;;;;;0.75;0.38;;;20.90;75.50;;;;;;5071783;28;20043;-63
2023/08/03 04:49:28;;;;;;;1.77;0.40;;;20.90;75.50;;;;;;5069717;28;20041;-63
2023/08/03 04:51:53;;;;;;;2.55;0.60;;;20.90;75.50;;;;;;5071611;28;20375;-63
2023/08/03 04:54:19;;;;;;;1.75;0.50;;;20.90;75.50;;;;;;5071917;28;20114;-63
2023/08/03 04:56:45;;;;;;;1.88;0.50;;;20.80;75.40;;;;;;5069711;28;20048;-63
2023/08/03 04:59:10;;;;;;;1.92;0.30;;;20.80;75.50;;;;;;5071380;28;20092;-63
2023/08/03 05:01:36;;;;;;;1.35;0.50;;;20.80;75.40;;;;;;5072101;28;20492;-63
2023/08/03 05:04:01;;;;;;;1.55;0.50;;;20.90;75.50;;;;;;5071428;28;20043;-63
2023/08/03 05:06:27;;;;;;;1.20;0.35;;;20.90;75.50;;;;;;5071931;28;20047;-63
2023/08/03 05:08:53;;;;;;;2.17;0.50;;;20.80;75.40;;;;;;5070551;28;20053;-63
2023/08/03 05:11:18;;;;;;;1.33;0.32;;;20.80;75.50;;;;;;5071096;28;21032;-63
2023/08/03 05:13:44;;;;;;;2.35;0.60;;;20.80;75.40;;;;;;5070437;28;20045;-63
2023/08/03 05:16:10;;;;;;;1.00;0.40;;;20.80;75.40;;;;;;5072392;28;20388;-63
2023/08/03 05:18:35;;;;;;;0.60;0.40;;;20.80;75.40;;;;;;5072677;28;20401;-63
2023/08/03 05:21:01;;;;;;;1.20;0.40;;;20.80;75.50;;;;;;5074490;28;20045;-63
2023/08/03 05:23:27;;;;;;;1.33;0.40;;;20.80;76.00;;;;;;5074368;28;20468;-63
2023/08/03 05:25:56;;;;;;;1.45;0.45;;;20.80;75.40;;;;;;5074303;28;20464;-63
2023/08/03 05:28:22;;;;;;;1.92;0.50;;;20.80;75.50;;;;;;5075617;28;20098;-63
2023/08/03 05:30:47;;;;;;;0.60;0.40;;;20.80;75.50;;;;;;5074865;28;20056;-63
2023/08/03 05:33:13;;;;;;;1.13;0.40;;;20.80;75.50;;;;;;5074579;28;20044;-63
2023/08/03 05:35:39;;;;;;;1.15;0.40;;;20.80;75.50;;;;;;5075033;28;20652;-63
2023/08/03 05:38:04;;;;;;;0.85;0.30;;;20.80;75.60;;;;;;5074135;28;20130;-63
2023/08/03 05:40:30;;;;;;;1.17;0.40;;;20.80;75.50;;;;;;5074427;28;20041;-63
2023/08/03 05:42:56;;;;;;;2.55;0.50;;;20.80;75.50;;;;;;5066791;28;20045;-63
2023/08/03 05:45:41;;;;;;;3.33;0.63;;;20.80;75.80;;;;;;5060777;28;20074;-63
2023/08/03 05:48:17;;;;;;;1.10;0.47;;;20.80;75.40;;;;;;5055230;28;20041;-63
2023/08/03 05:50:54;;;;;;;1.35;0.50;;;20.80;75.40;;;;;;5054916;28;20071;-64
2023/08/03 05:53:19;;;;;;;0.77;0.50;;;20.80;75.50;;;;;;5053954;28;20400;-63
2023/08/03 05:55:45;;;;;;;2.75;0.43;;;20.80;75.50;;;;;;5054323;28;20484;-63
2023/08/03 05:58:12;;;;;;;1.50;0.55;;;20.80;75.40;;;;;;5055244;28;20041;-63
2023/08/03 06:00:39;;;;;;;1.33;0.40;;;20.80;75.50;;;;;;5052732;28;20105;-63
2023/08/03 06:03:05;;;;;;;1.15;0.40;;;20.80;75.40;;;;;;5053772;28;20076;-63
2023/08/03 06:05:45;;;;;;;1.42;0.50;;;20.80;75.50;;;;;;5054657;28;20095;-63
2023/08/03 06:08:21;;;;;;;1.08;0.50;;;20.80;75.40;;;;;;5053590;28;20053;-64
2023/08/03 06:10:52;;;;;;;1.70;0.50;;;20.80;75.40;;;;;;5054612;28;20049;-64
2023/08/03 06:13:19;;;;;;;2.95;0.60;;;20.80;75.50;;;;;;5053371;28;20048;-70
2023/08/03 06:15:46;;;;;;;1.13;0.50;;;20.80;75.50;;;;;;5051899;28;20048;-63
2023/08/03 06:18:14;;;;;;;2.15;0.68;;;20.80;75.50;;;;;;5054470;28;20061;-64
2023/08/03 06:20:41;;;;;;;;;;;20.80;75.50;;;;;;5052928;28;20087;-63
2023/08/03 06:23:10;;;;;;;1.42;0.63;;;20.80;75.50;;;;;;5053340;28;19923;-63
2023/08/03 06:25:36;;;;;;;1.65;0.50;;;20.80;76.10;;;;;;5037158;28;20049;-63
2023/08/03 06:28:02;;;;;;;5.97;1.13;;;20.80;75.70;;;;;;5051527;28;20127;-63
2023/08/03 06:30:27;;;;;;;3.55;0.73;;;20.80;75.80;;;;;;5053048;28;20551;-59
2023/08/03 06:32:54;;;;;;;2.60;0.50;;;20.80;75.90;;;;;;5075944;28;20431;-62
2023/08/03 06:35:41;;;;;;;2.67;0.70;;;20.80;76.00;;;;;;5072325;28;20086;-63
2023/08/03 06:38:08;;;;;;;2.13;0.50;;;20.90;76.20;;;;;;5074326;28;20498;-63
2023/08/03 06:40:34;;;;;;;3.22;0.50;;;20.90;76.30;;;;;;5073858;28;20032;-62
2023/08/03 06:43:01;;;;;;;2.13;0.60;;;20.90;76.20;;;;;;5073757;28;20063;-63
2023/08/03 06:45:26;;;;;;;3.92;0.70;;;20.90;76.30;;;;;;5071492;28;20108;-64
2023/08/03 06:47:52;;;;;;;4.90;0.82;;;20.90;76.30;;;;;;5072000;28;20170;-64
2023/08/03 06:50:18;;;;;;;2.15;0.70;;;20.90;76.10;;;;;;5071572;28;20103;-64
2023/08/03 06:52:43;;;;;;;2.05;0.70;;;20.90;76.20;;;;;;5071917;28;20047;-64
2023/08/03 06:55:09;;;;;;;3.05;0.57;;;21.00;76.30;;;;;;5072614;28;20055;-64
2023/08/03 06:57:34;;;;;;;2.83;0.68;;;20.90;76.40;;;;;;5072662;28;20044;-64
2023/08/03 07:00:00;;;;;;;2.95;0.70;;;21.00;76.40;;;;;;5073509;28;20118;-63
2023/08/03 07:02:26;;;;;;;2.58;0.63;;;21.00;76.50;;;;;;5072386;28;20124;-64
2023/08/03 07:04:52;;;;;;;3.85;0.68;;;21.00;76.40;;;;;;5071071;28;20043;-64
2023/08/03 07:07:17;;;;;;;2.95;0.65;;;21.00;76.50;;;;;;5072481;28;20082;-65
2023/08/03 07:09:49;;;;;;;3.20;0.80;;;21.10;76.60;;;;;;5072615;28;20403;-64
2023/08/03 07:12:15;;;;;;;2.83;0.70;;;21.00;76.50;;;;;;5072496;28;20048;-63
2023/08/03 07:14:41;;;;;;;3.88;0.70;;;21.00;76.50;;;;;;5073016;28;20051;-63
2023/08/03 07:17:07;;;;;;;2.22;0.70;;;21.00;76.40;;;;;;5071726;28;20037;-63
2023/08/03 07:19:32;;;;;;;4.07;0.70;;;21.10;76.40;;;;;;5072938;28;20041;-63
2023/08/03 07:21:58;;;;;;;3.30;0.82;;;21.10;76.50;;;;;;5072401;28;20048;-64
2023/08/03 07:24:24;;;;;;;3.58;0.90;;;21.10;76.60;;;;;;5069796;28;20044;-62
2023/08/03 07:26:49;;;;;;;1.85;0.70;;;21.20;76.60;;;;;;5072421;28;20048;-63
2023/08/03 07:29:15;;;;;;;2.78;0.93;;;21.10;76.60;;;;;;5071311;28;20047;-61
2023/08/03 07:31:41;;;;;;;3.97;0.70;;;21.10;76.60;;;;;;5070964;28;20067;-61
2023/08/03 07:34:07;;;;;;;4.10;0.90;;;21.20;76.70;;;;;;5072724;28;20119;-63
2023/08/03 07:36:32;;;;;;;3.35;1.05;;;21.20;76.60;;;;;;5072929;28;20446;-62
2023/08/03 07:38:58;;;;;;;5.03;0.90;;;21.20;76.60;;;;;;5071181;28;20079;-65
2023/08/03 07:41:23;;;;;;;3.40;0.90;;;21.20;76.50;;;;;;5072618;28;20040;-62
2023/08/03 07:43:52;;;;;;;3.38;0.90;;;21.30;76.50;;;;;;5071946;28;20076;-63
2023/08/03 07:46:17;;;;;;;3.45;1.00;;;21.30;76.50;;;;;;5070398;28;20047;-64
2023/08/03 07:48:43;;;;;;;4.22;0.80;;;21.30;76.50;;;;;;5069409;28;20036;-63
2023/08/03 07:51:15;;;;;;;3.10;0.80;;;21.30;76.60;;;;;;5069463;28;20068;-64
2023/08/03 07:53:41;;;;;;;6.60;1.15;;;21.30;76.60;;;;;;5069450;28;20048;-62
2023/08/03 07:56:20;;;;;;;3.70;1.02;;;21.30;76.60;;;;;;5071467;28;20495;-62
2023/08/03 07:58:47;;;;;;;3.05;0.85;;;21.30;76.60;;;;;;5070989;28;20045;-62
2023/08/03 08:01:12;;;;;;;3.58;0.90;;;21.30;76.60;;;;;;5069848;28;20045;-62
2023/08/03 08:03:38;;;;;;;2.55;0.90;;;21.30;76.70;;;;;;5071433;28;20517;-62
2023/08/03 08:06:08;;;;;;;2.47;0.60;;;21.30;76.70;;;;;;5071663;28;20471;-62
2023/08/03 08:08:33;;;;;;;4.97;1.40;;;21.30;76.70;;;;;;5072155;28;20048;-62
2023/08/03 08:10:59;;;;;;;3.50;1.10;;;21.30;76.80;;;;;;5072550;28;20234;-62
2023/08/03 08:13:25;;;;;;;7.65;1.02;;;21.30;76.80;;;;;;5071692;28;20047;-62
2023/08/03 08:15:50;;;;;;;3.10;1.02;;;21.30;76.80;;;;;;5071978;28;20044;-62
2023/08/03 08:18:16;;;;;;;3.72;1.00;;;21.30;76.80;;;;;;5072671;28;20499;-62
2023/08/03 08:20:44;;;;;;;3.67;1.00;;;21.40;76.80;;;;;;5071385;28;20041;-62
2023/08/03 08:23:10;;;;;;;3.88;0.98;;;21.40;76.80;;;;;;5072553;28;20097;-62
2023/08/03 08:25:37;;;;;;;4.15;0.98;;;21.40;76.70;;;;;;5071465;28;20040;-62
2023/08/03 08:28:03;;;;;;;4.18;0.90;;;21.40;76.70;;;;;;5071666;28;20049;-61
2023/08/03 08:30:29;;;;;;;3.72;1.08;;;21.40;76.60;;;;;;5072270;28;20036;-62
2023/08/03 08:32:54;;;;;;;4.50;1.13;;;21.40;76.60;;;;;;5072254;28;20476;-62
2023/08/03 08:35:20;;;;;;;2.55;1.10;;;21.40;76.60;;;;;;5071305;28;20053;-62
2023/08/03 08:37:45;;;;;;;4.28;0.80;;;21.50;76.60;;;;;;5070856;28;20044;-62
2023/08/03 08:40:11;;;;;;;6.75;1.40;;;21.40;76.60;;;;;;5071836;28;20515;-63
2023/08/03 08:42:40;;;;;;;5.18;0.95;;;21.50;76.60;;;;;;5071354;28;20051;-63
2023/08/03 08:45:06;;;;;;;7.28;0.90;;;21.50;76.60;;;;;;5071184;28;20483;-63
2023/08/03 08:47:32;;;;;;;4.43;1.00;;;21.50;76.60;;;;;;5072316;28;20044;-63
2023/08/03 08:49:57;;;;;;;4.38;1.00;;;21.50;76.60;;;;;;5069984;28;20047;-63
2023/08/03 08:52:24;;;;;;;2.35;0.88;;;21.50;76.60;;;;;;5074616;28;20395;-63
2023/08/03 08:54:50;;;;;;;4.25;1.08;;;21.50;76.60;;;;;;5074093;28;20113;-63
2023/08/03 08:57:15;;;;;;;4.82;0.90;;;21.60;76.60;;;;;;5075571;28;20044;-62
2023/08/03 09:00:05;;;;;;;5.65;1.10;;;21.60;76.50;;;;;;5075534;28;20037;-63
2023/08/03 09:02:30;;;;;;;4.60;0.88;;;21.50;76.40;;;;;;5074897;28;20044;-63
2023/08/03 09:04:56;;;;;;;4.80;1.10;;;21.50;76.40;;;;;;5075055;28;20040;-63
2023/08/03 09:07:22;;;;;;;3.45;0.90;;;21.60;76.50;;;;;;5075704;28;20045;-63
2023/08/03 09:09:48;;;;;;;4.70;1.10;;;21.60;76.40;;;;;;5074340;28;20037;-67
2023/08/03 09:12:24;;;;;;;5.90;1.10;;;21.60;76.40;;;;;;5075729;28;20424;-65
2023/08/03 09:14:50;;;;;;;15.52;1.20;;;21.60;76.40;;;;;;5053920;28;20223;-62
2023/08/03 09:17:16;;;;;;;5.15;1.02;;;21.70;76.30;;;;;;5053754;28;20120;-62
2023/08/03 09:19:42;;;;;;;5.22;0.98;;;21.60;76.20;;;;;;5055418;28;20048;-62
2023/08/03 09:22:08;;;;;;;5.60;0.80;;;21.70;76.10;;;;;;5058697;28;20032;-62
2023/08/03 09:24:33;;;;;;;1.73;0.80;;;21.70;76.00;;;;;;5074645;28;20499;-62
2023/08/03 09:26:59;;;;;;;3.85;1.02;;;21.70;76.00;;;;;;5074166;28;20044;-61
2023/08/03 09:29:31;;;;;;;3.05;0.75;;;21.70;75.90;;;;;;5074904;28;20046;-62
2023/08/03 09:32:03;;;;;;;5.55;1.30;;;21.70;76.00;;;;;;5074105;28;20064;-63
2023/08/03 09:34:42;;;;;;;5.63;1.00;;;21.60;76.10;;;;;;5075802;28;20477;-63
2023/08/03 09:37:08;;;;;;;4.80;0.85;;;21.70;76.20;;;;;;5075605;28;20086;-61
2023/08/03 09:39:34;;;;;;;3.03;0.85;;;21.70;76.20;;;;;;5073725;28;20041;-61
2023/08/03 09:42:05;;;;;;;6.03;0.90;;;21.70;76.30;;;;;;5075267;28;20048;-62
2023/08/03 09:44:33;;;;;;;3.88;0.60;;;21.70;76.30;;;;;;5074270;28;20047;-63
2023/08/03 09:47:00;;;;;;;4.05;1.15;;;21.70;76.40;;;;;;5074925;28;20513;-62
2023/08/03 09:49:26;;;;;;;5.68;0.88;;;21.70;76.30;;;;;;5075107;28;20047;-62
2023/08/03 09:51:55;;;;;;;4.10;0.80;;;21.70;76.30;;;;;;5074078;28;20396;-62
2023/08/03 09:54:56;;;;;;;4.60;1.35;;;21.70;76.30;;;;;;5074550;28;20067;-63
2023/08/03 09:57:28;;;;;;;2.40;0.85;;;21.80;76.40;;;;;;5071747;28;20518;-62
2023/08/03 09:59:58;;;;;;;3.35;0.80;;;21.70;76.30;;;;;;5072541;28;20040;-62
2023/08/03 10:02:24;;;;;;;4.53;0.88;;;21.80;76.30;;;;;;5073765;28;20044;-62
2023/08/03 10:04:51;;;;;;;5.28;0.80;;;21.80;76.20;;;;;;5074865;28;20043;-62
2023/08/03 10:07:17;;;;;;;2.60;0.80;;;21.80;76.10;;;;;;5073019;28;20114;-62
2023/08/03 10:09:44;;;;;;;3.03;0.88;;;21.80;76.00;;;;;;5072993;28;20041;-61
2023/08/03 10:12:12;;;;;;;3.80;0.90;;;21.80;76.00;;;;;;5073735;28;20059;-62
2023/08/03 10:14:41;;;;;;;2.78;0.88;;;21.80;75.90;;;;;;5072265;28;20041;-62
2023/08/03 10:17:07;;;;;;;4.90;0.60;;;21.90;75.90;;;;;;5074675;28;20040;-61
2023/08/03 10:19:33;;;;;;;3.28;0.70;;;21.90;75.80;;;;;;5056743;28;20120;-61
2023/08/03 10:21:59;;;;;;;2.50;0.77;;;21.90;75.80;;;;;;5073703;28;20127;-62
2023/08/03 10:24:24;;;;;;;2.72;0.98;;;21.90;75.70;;;;;;5074475;28;20120;-61
2023/08/03 10:26:52;;;;;;;4.78;0.95;;;21.90;75.70;;;;;;5073326;28;20071;-61
2023/08/03 10:29:52;;;;;;;2.35;0.73;;;22.00;75.70;;;;;;5074076;28;20083;-61
2023/08/03 10:32:19;;;;;;;1.92;0.80;;;21.90;75.70;;;;;;5073988;28;20056;-61
2023/08/03 10:34:44;;;;;;;4.10;0.68;;;21.90;75.60;;;;;;5071384;28;20055;-61
2023/08/03 10:37:13;;;;;;;3.03;0.77;;;21.90;75.60;;;;;;5074536;28;20131;-61
2023/08/03 10:39:53;;;;;;;2.10;0.60;;;21.90;75.60;;;;;;5074052;28;20119;-61
2023/08/03 10:42:22;;;;;;;1.75;0.70;;;21.90;75.50;;;;;;5073698;28;20049;-62
2023/08/03 10:44:47;;;;;;;4.45;0.60;;;21.90;75.50;;;;;;5073846;28;20036;-62
2023/08/03 10:47:29;;;;;;;2.45;0.90;;;21.90;75.50;;;;;;5074083;28;20123;-61
2023/08/03 10:49:58;;;;;;;3.22;0.80;;;21.90;75.40;;;;;;5071662;28;20125;-61
2023/08/03 10:52:26;;;;;;;5.00;0.93;;;21.90;75.40;;;;;;5074018;28;20040;-63
2023/08/03 10:54:52;;;;;;;;;;;21.90;75.30;;;;;;5073082;28;20488;-63
2023/08/03 10:57:24;;;;;;;7.72;1.50;;;21.90;75.50;;;;;;5073988;28;20007;-63
2023/08/03 11:00:08;;;;;;;7.65;1.50;;;21.90;75.50;;;;;;5073554;28;20044;-63
2023/08/03 11:02:34;;;;;;;9.15;1.88;;;21.90;75.60;;;;;;5072823;28;20543;-63
2023/08/03 11:05:01;;;;;;;7.63;2.10;;;21.90;75.60;;;;;;5074006;28;20044;-62
2023/08/03 11:07:45;;;;;;;8.27;2.50;;;21.90;75.70;;;;;;5072788;28;20082;-62
2023/08/03 11:10:15;;;;;;;6.72;1.98;;;22.00;75.50;;;;;;5072805;28;20048;-62
2023/08/03 11:12:41;;;;;;;8.82;2.15;;;22.00;75.50;;;;;;5073399;28;20045;-62
2023/08/03 11:15:08;;;;;;;7.90;1.80;;;22.00;75.40;;;;;;5073303;28;20045;-62
2023/08/03 11:17:34;;;;;;;5.88;1.48;;;22.00;75.40;;;;;;5072290;28;20037;-63
2023/08/03 11:20:03;;;;;;;8.32;1.90;;;22.00;75.30;;;;;;5073297;28;20518;-62
2023/08/03 11:22:29;;;;;;;6.40;1.80;;;22.00;75.30;;;;;;5073545;28;20501;-62
2023/08/03 11:24:55;;;;;;;7.25;1.70;;;22.00;75.20;;;;;;5072163;28;20128;-62
2023/08/03 11:27:21;;;;;;;7.43;2.20;;;22.00;75.20;;;;;;5073511;28;20135;-62
2023/08/03 11:29:47;;;;;;;5.18;1.58;;;22.00;75.20;;;;;;5072975;28;20116;-63
2023/08/03 11:32:22;;;;;;;6.75;1.80;;;22.00;75.20;;;;;;5072334;28;20139;-62
2023/08/03 11:34:48;;;;;;;6.25;1.73;;;22.10;75.20;;;;;;5063252;28;20056;-62
2023/08/03 11:37:14;;;;;;;7.68;1.75;;;22.10;75.20;;;;;;5060135;28;20404;-61
2023/08/03 11:39:39;;;;;;;5.90;1.58;;;22.10;75.10;;;;;;5056254;28;20044;-62
2023/08/03 11:42:06;;;;;;;4.75;1.40;;;22.10;75.10;;;;;;5068436;28;20485;-62
2023/08/03 11:44:31;;;;;;;5.88;1.80;;;22.10;75.00;;;;;;5057528;28;20045;-62
2023/08/03 11:47:04;;;;;;;7.60;1.50;;;22.10;75.00;;;;;;5035146;28;20156;-62
2023/08/03 11:49:30;;;;;;;6.00;1.40;;;22.10;75.00;;;;;;5052878;28;20116;-62
2023/08/03 11:51:59;;;;;;;6.35;1.77;;;22.10;74.90;;;;;;5051839;28;20145;-62
2023/08/03 11:54:25;;;;;;;4.55;1.10;;;22.20;74.90;;;;;;5052931;28;20068;-62
2023/08/03 11:56:51;;;;;;;6.20;1.35;;;22.10;74.80;;;;;;5052816;28;20044;-63
2023/08/03 11:59:20;;;;;;;4.95;1.40;;;22.10;74.80;;;;;;5052121;28;20041;-63
2023/08/03 12:01:46;;;;;;;6.95;1.35;;;22.20;74.80;;;;;;5051793;28;20051;-62
2023/08/03 12:04:12;;;;;;;4.97;1.55;;;22.20;74.80;;;;;;5052295;28;20044;-62
2023/08/03 12:06:41;;;;;;;4.25;1.15;;;22.20;74.70;;;;;;5051433;28;20136;-62
2023/08/03 12:09:07;;;;;;;4.57;1.40;;;22.20;74.70;;;;;;5052595;28;20041;-61
2023/08/03 12:11:32;;;;;;;5.88;1.70;;;22.20;74.70;;;;;;5051504;28;20094;-62
2023/08/03 12:13:58;;;;;;;4.65;1.00;;;22.20;74.70;;;;;;5050255;28;20045;-61
2023/08/03 12:16:24;;;;;;;4.85;1.20;;;22.20;74.80;;;;;;5062099;28;20101;-61
2023/08/03 12:18:49;;;;;;;7.40;1.70;;;22.20;74.80;;;;;;5070669;28;20126;-62
2023/08/03 12:21:15;;;;;;;6.28;1.30;;;22.20;74.80;;;;;;5071266;28;20063;-62
2023/08/03 12:23:40;;;;;;;5.50;1.40;;;22.30;75.00;;;;;;5070752;28;20075;-61
2023/08/03 12:26:07;;;;;;;6.32;1.58;;;22.30;74.90;;;;;;5071244;28;20058;-61
2023/08/03 12:28:33;;;;;;;4.95;1.35;;;22.30;74.90;;;;;;5075145;28;20063;-61
2023/08/03 12:30:58;;;;;;;5.60;1.60;;;22.30;74.90;;;;;;5075820;28;20423;-61
2023/08/03 12:33:24;;;;;;;5.75;1.20;;;22.30;74.90;;;;;;5075032;28;20044;-61
2023/08/03 12:35:50;;;;;;;3.30;0.90;;;22.40;74.90;;;;;;5075076;28;20048;-62
2023/08/03 12:38:15;;;;;;;7.57;1.40;;;22.40;74.90;;;;;;5075876;28;20473;-61
2023/08/03 12:40:41;;;;;;;4.90;1.30;;;22.40;74.90;;;;;;5074951;28;20094;-61
2023/08/03 12:43:06;;;;;;;3.55;1.10;;;22.40;74.80;;;;;;5075937;28;20544;-61
2023/08/03 12:45:32;;;;;;;4.50;1.15;;;22.40;74.80;;;;;;5075264;28;20556;-62
2023/08/03 12:48:00;;;;;;;2.25;0.90;;;22.50;74.90;;;;;;5074654;28;20499;-62